createdAt,value
2023-01-19T00:03:07.426Z,8.70
2023-01-19T00:08:32.456Z,9.63
2023-01-19T00:14:00.311Z,10.27
2023-01-19T00:19:25.472Z,10.18
2023-01-19T00:24:51.339Z,11.10
2023-01-19T00:30:21.356Z,10.73
2023-01-19T00:35:52.337Z,9.13
2023-01-19T00:41:17.348Z,9.93
2023-01-19T00:46:44.669Z,7.10
2023-01-19T00:52:09.319Z,6.53
2023-01-19T00:57:34.357Z,6.60
2023-01-19T01:03:09.437Z,6.75
2023-01-19T01:08:34.362Z,6.28
2023-01-19T01:13:59.316Z,7.68
2023-01-19T01:19:27.360Z,9.38
2023-01-19T01:24:52.328Z,7.63
2023-01-19T01:30:20.363Z,8.30
2023-01-19T01:35:55.365Z,7.88
2023-01-19T01:41:21.171Z,5.43
2023-01-19T01:46:49.377Z,5.53
2023-01-19T01:52:17.334Z,5.10
2023-01-19T01:57:42.342Z,5.45
2023-01-19T02:03:07.637Z,6.43
2023-01-19T02:08:53.347Z,5.07
2023-01-19T02:14:18.357Z,5.45
2023-01-19T02:19:48.524Z,5.10
2023-01-19T02:25:17.421Z,5.72
2023-01-19T02:30:43.423Z,6.35
2023-01-19T02:36:17.499Z,5.03
2023-01-19T02:41:49.384Z,4.65
2023-01-19T02:47:13.389Z,5.65
2023-01-19T02:52:39.387Z,4.70
2023-01-19T02:58:15.371Z,7.18
2023-01-19T03:03:53.372Z,4.70
2023-01-19T03:09:24.350Z,5.55
2023-01-19T03:15:03.360Z,4.81
2023-01-19T03:20:35.386Z,4.97
2023-01-19T03:26:04.368Z,6.03
2023-01-19T03:31:35.400Z,5.28
2023-01-19T03:37:09.372Z,6.05
2023-01-19T03:42:36.375Z,5.05
2023-01-19T03:48:04.410Z,6.82
2023-01-19T03:53:31.403Z,6.32
2023-01-19T03:58:56.356Z,6.47
2023-01-19T04:04:24.417Z,6.22
2023-01-19T04:09:50.490Z,7.80
2023-01-19T04:15:17.392Z,6.18
2023-01-19T04:20:45.400Z,6.70
2023-01-19T04:26:13.484Z,5.65
2023-01-19T04:31:38.440Z,5.22
2023-01-19T04:37:06.400Z,7.05
2023-01-19T04:42:31.398Z,6.05
2023-01-19T04:47:56.525Z,7.38
2023-01-19T04:53:25.422Z,8.10
2023-01-19T04:58:50.387Z,6.72
2023-01-19T05:04:15.438Z,5.43
2023-01-19T05:09:43.519Z,6.50
2023-01-19T05:15:08.415Z,6.30
2023-01-19T05:20:34.481Z,7.07
2023-01-19T05:26:03.433Z,6.55
2023-01-19T05:31:28.547Z,6.72
2023-01-19T05:36:52.605Z,5.70
2023-01-19T05:42:20.442Z,6.22
2023-01-19T05:47:46.415Z,8.38
2023-01-19T05:53:12.431Z,7.70
2023-01-19T05:58:41.457Z,8.70
2023-01-19T06:04:06.421Z,7.22
2023-01-19T06:09:31.443Z,7.07
2023-01-19T06:14:59.455Z,7.10
2023-01-19T06:20:25.421Z,7.32
2023-01-19T06:25:50.443Z,7.40
2023-01-19T06:31:17.717Z,7.28
2023-01-19T06:36:42.442Z,7.80
2023-01-19T06:42:08.453Z,8.75
2023-01-19T06:47:36.539Z,7.57
2023-01-19T06:53:00.763Z,9.85
2023-01-19T06:58:25.442Z,7.32
2023-01-19T07:03:52.453Z,8.73
2023-01-19T07:09:19.462Z,8.27
2023-01-19T07:14:43.525Z,7.82
2023-01-19T07:20:11.466Z,8.90
2023-01-19T07:25:35.451Z,8.52
2023-01-19T07:31:01.504Z,9.57
2023-01-19T07:36:28.456Z,9.25
2023-01-19T07:41:53.445Z,9.18
2023-01-19T07:47:19.498Z,8.77
2023-01-19T07:52:47.458Z,7.82
2023-01-19T07:58:13.454Z,10.13
2023-01-19T08:03:38.458Z,12.20
2023-01-19T08:09:05.468Z,11.13
2023-01-19T08:14:30.471Z,11.70
2023-01-19T08:19:56.487Z,11.23
2023-01-19T08:25:24.477Z,9.23
2023-01-19T08:30:50.558Z,9.27
2023-01-19T08:36:16.448Z,10.40
2023-01-19T08:41:43.479Z,11.15
2023-01-19T08:47:09.673Z,9.13
2023-01-19T08:52:35.491Z,10.07
2023-01-19T08:58:10.588Z,11.52
2023-01-19T09:03:35.515Z,9.85
2023-01-19T09:09:00.464Z,8.80
2023-01-19T09:14:28.458Z,8.25
2023-01-19T09:19:53.505Z,9.00
2023-01-19T09:25:19.497Z,8.13
2023-01-19T09:30:46.506Z,8.60
2023-01-19T09:36:11.516Z,9.15
2023-01-19T09:41:37.478Z,8.23
2023-01-19T09:47:05.489Z,7.53
2023-01-19T09:52:31.515Z,7.97
2023-01-19T09:58:04.053Z,7.30
2023-01-19T10:03:33.848Z,8.13
2023-01-19T10:09:11.699Z,8.52
2023-01-19T10:14:46.512Z,7.30
2023-01-19T10:20:18.496Z,7.63
2023-01-19T10:25:44.702Z,8.15
2023-01-19T10:31:12.579Z,7.63
2023-01-19T10:36:46.530Z,6.97
2023-01-19T10:42:20.532Z,6.28
2023-01-19T10:47:48.515Z,6.00
2023-01-19T10:53:17.555Z,5.47
2023-01-19T10:58:46.492Z,5.38
2023-01-19T11:04:12.529Z,4.35
2023-01-19T11:09:40.529Z,5.60
2023-01-19T11:15:07.603Z,4.88
2023-01-19T11:20:35.541Z,5.15
2023-01-19T11:26:07.569Z,4.75
2023-01-19T11:31:42.534Z,4.55
2023-01-19T11:37:12.563Z,4.30
2023-01-19T11:42:43.538Z,5.22
2023-01-19T11:48:07.633Z,4.35
2023-01-19T11:53:36.448Z,4.47
2023-01-19T11:59:05.018Z,4.45
2023-01-19T12:04:35.542Z,4.38
2023-01-19T12:10:01.611Z,4.82
2023-01-19T12:15:36.995Z,5.25
2023-01-19T12:21:05.649Z,4.07
2023-01-19T12:26:47.564Z,4.55
2023-01-19T12:32:49.551Z,3.50
2023-01-19T12:38:33.566Z,3.25
2023-01-19T12:43:58.990Z,3.60
2023-01-19T12:49:33.552Z,3.17
2023-01-19T12:55:06.661Z,3.40
2023-01-19T13:00:43.645Z,2.60
2023-01-19T13:06:11.597Z,2.00
2023-01-19T13:11:37.588Z,2.20
2023-01-19T13:17:12.595Z,2.90
2023-01-19T13:23:21.579Z,4.32
2023-01-19T13:28:55.586Z,2.80
2023-01-19T13:34:24.904Z,2.97
2023-01-19T13:39:57.812Z,3.25
2023-01-19T13:45:33.604Z,4.28
2023-01-19T13:50:57.610Z,3.03
2023-01-19T13:56:32.606Z,2.25
2023-01-19T14:02:00.754Z,2.90
2023-01-19T14:07:32.679Z,2.83
2023-01-19T14:13:00.214Z,3.28
2023-01-19T14:18:34.616Z,2.60
2023-01-19T14:24:03.587Z,2.92
2023-01-19T14:29:34.616Z,3.10
2023-01-19T14:35:01.913Z,3.50
2023-01-19T14:40:31.270Z,3.80
2023-01-19T14:46:02.609Z,3.85
2023-01-19T14:51:31.615Z,4.13
2023-01-19T14:56:55.611Z,4.97
2023-01-19T15:02:29.998Z,5.50
2023-01-19T15:07:56.674Z,4.78
2023-01-19T15:13:22.385Z,4.70
2023-01-19T15:18:50.958Z,4.53
2023-01-19T15:24:16.352Z,4.72
2023-01-19T15:29:45.189Z,4.25
2023-01-19T15:35:14.218Z,4.40
2023-01-19T15:40:39.764Z,3.90
2023-01-19T15:46:07.835Z,4.28
2023-01-19T15:51:36.794Z,4.22
2023-01-19T15:57:03.486Z,4.90
2023-01-19T16:02:34.628Z,4.07
2023-01-19T16:08:03.617Z,4.38
2023-01-19T16:13:28.656Z,5.45
2023-01-19T16:18:53.679Z,5.30
2023-01-19T16:24:20.629Z,5.10
2023-01-19T16:29:45.658Z,4.85
2023-01-19T16:35:09.649Z,7.40
2023-01-19T16:40:38.660Z,5.53
2023-01-19T16:46:13.674Z,9.05
2023-01-19T16:51:40.948Z,5.00
2023-01-19T16:57:08.668Z,4.32
2023-01-19T17:02:33.700Z,4.57
2023-01-19T17:07:57.659Z,4.53
2023-01-19T17:13:25.671Z,5.88
2023-01-19T17:18:51.657Z,4.38
2023-01-19T17:24:17.765Z,5.10
2023-01-19T17:29:44.663Z,4.25
2023-01-19T17:35:10.649Z,4.00
2023-01-19T17:40:36.148Z,4.00
2023-01-19T17:46:03.678Z,4.70
2023-01-19T17:51:29.683Z,4.47
2023-01-19T17:56:54.693Z,4.82
2023-01-19T18:02:21.685Z,6.28
2023-01-19T18:07:53.673Z,7.15
2023-01-19T18:13:18.675Z,7.30
2023-01-19T18:18:46.778Z,8.55
2023-01-19T18:24:14.701Z,8.35
2023-01-19T18:29:38.806Z,8.80
2023-01-19T18:35:06.670Z,7.47
2023-01-19T18:40:31.653Z,8.90
2023-01-19T18:45:56.736Z,8.55
2023-01-19T18:51:25.694Z,9.00
2023-01-19T18:56:50.722Z,9.93
2023-01-19T19:02:15.733Z,11.20
2023-01-19T19:07:49.679Z,10.93
2023-01-19T19:13:14.715Z,12.13
2023-01-19T19:18:39.680Z,9.30
2023-01-19T19:24:07.765Z,7.53
2023-01-19T19:29:31.723Z,7.78
2023-01-19T19:34:59.745Z,7.70
2023-01-19T19:40:27.747Z,8.02
2023-01-19T19:45:52.692Z,7.50
2023-01-19T19:51:21.728Z,7.93
2023-01-19T19:56:49.797Z,11.98
2023-01-19T20:02:13.724Z,14.25
2023-01-19T20:07:45.743Z,15.93
2023-01-19T20:13:14.720Z,15.52
2023-01-19T20:18:41.240Z,13.73
2023-01-19T20:24:08.723Z,13.80
2023-01-19T20:29:36.735Z,14.55
2023-01-19T20:35:01.738Z,13.88
2023-01-19T20:40:25.732Z,13.57
2023-01-19T20:45:53.831Z,13.63
2023-01-19T20:51:20.719Z,13.60
2023-01-19T20:56:47.733Z,13.82
2023-01-19T21:02:20.772Z,12.70
2023-01-19T21:07:51.905Z,12.07
2023-01-19T21:13:16.750Z,12.45
2023-01-19T21:18:44.784Z,12.30
2023-01-19T21:24:13.928Z,12.20
2023-01-19T21:29:37.748Z,12.80
2023-01-19T21:35:05.765Z,13.75
2023-01-19T21:40:30.772Z,12.60
2023-01-19T21:45:56.769Z,11.98
2023-01-19T21:51:23.769Z,10.38
2023-01-19T21:56:49.737Z,10.05
2023-01-19T22:02:14.100Z,10.73
2023-01-19T22:07:41.762Z,13.48
2023-01-19T22:13:05.796Z,12.50
2023-01-19T22:18:30.772Z,10.70
2023-01-19T22:23:58.798Z,10.20
2023-01-19T22:29:23.759Z,9.15
2023-01-19T22:34:47.803Z,9.50
2023-01-19T22:40:16.778Z,9.30
2023-01-19T22:45:41.852Z,10.45
2023-01-19T22:51:06.793Z,8.57
2023-01-19T22:56:36.779Z,8.25
2023-01-19T23:02:01.895Z,8.25
2023-01-19T23:07:33.786Z,9.15
2023-01-19T23:13:01.791Z,8.73
2023-01-19T23:18:26.804Z,7.20
2023-01-19T23:23:52.806Z,7.45
2023-01-19T23:29:23.812Z,6.85
2023-01-19T23:34:48.766Z,8.10
2023-01-19T23:40:16.970Z,8.60
2023-01-19T23:45:44.779Z,8.85
2023-01-19T23:51:08.810Z,8.52
2023-01-19T23:56:35.879Z,7.47
